KNUW

Whidbey Island NAS / Ault Field Airport

Oak Harbor, Washington, USA
METAR KNUW 182256Z 26007KT 10SM FEW250 20/12 A3019 RMK AO2 SLP222 T02000122 $
Observed Flight Rules
Aug-18 @ 22:56 UTC (51 minutes ago) Visual Flight Rules
Wind Visibility Clouds
260° at 7 knots 10 miles
  • Few at 25,000' AGL
Temperatures Readings
Current 20°C / 68°F
Dewpoint 12°C / 54°F
Humidity 60%
Altimeter 30.19" Hg
Pressure 1022.2 hPa
Elevation 14
METAR KNUW 182256Z 26007KT 10SM FEW250 20/12 A3019 RMK AO2 SLP222 T02000122 $
Observed Flight Rules
Aug-18 @ 22:56 UTC
(51 minutes ago)
VFR
Wind Visibility
260° at 7 knots 10 miles
Clouds
  • Few at 25,000' AGL
Temperature Dewpoint
20°C / 68°F 12°C / 54°F
Humidity Altimeter Pressure
60% 30.19" Hg 1022.2 hPa